sensor_id;sensor_type;location;lat;lon;timestamp;temperature;humidity
48988;DHT22;34799;51.440;-2.534;2023-09-18T00:00:48;18.60;99.90
48988;DHT22;34799;51.440;-2.534;2023-09-18T00:03:20;18.60;99.90
48988;DHT22;34799;51.440;-2.534;2023-09-18T00:05:47;18.60;99.90
48988;DHT22;34799;51.440;-2.534;2023-09-18T00:08:15;18.60;99.90
48988;DHT22;34799;51.440;-2.534;2023-09-18T00:10:46;18.60;99.90
48988;DHT22;34799;51.440;-2.534;2023-09-18T00:13:14;18.60;99.90
48988;DHT22;34799;51.440;-2.534;2023-09-18T00:15:41;18.60;99.90
48988;DHT22;34799;51.440;-2.534;2023-09-18T00:18:11;18.60;99.90
48988;DHT22;34799;51.440;-2.534;2023-09-18T00:20:38;18.60;99.90
48988;DHT22;34799;51.440;-2.534;2023-09-18T00:23:05;18.60;99.90
48988;DHT22;34799;51.440;-2.534;2023-09-18T00:25:32;18.70;99.90
48988;DHT22;34799;51.440;-2.534;2023-09-18T00:27:59;18.60;99.90
48988;DHT22;34799;51.440;-2.534;2023-09-18T00:30:26;18.60;99.90
48988;DHT22;34799;51.440;-2.534;2023-09-18T00:32:54;18.60;99.90
48988;DHT22;34799;51.440;-2.534;2023-09-18T00:35:22;18.60;99.90
48988;DHT22;34799;51.440;-2.534;2023-09-18T00:37:50;18.70;99.90
48988;DHT22;34799;51.440;-2.534;2023-09-18T00:40:19;18.60;99.90
48988;DHT22;34799;51.440;-2.534;2023-09-18T00:42:46;18.60;99.90
48988;DHT22;34799;51.440;-2.534;2023-09-18T00:45:14;18.60;99.90
48988;DHT22;34799;51.440;-2.534;2023-09-18T00:47:42;18.60;99.90
48988;DHT22;34799;51.440;-2.534;2023-09-18T00:50:12;18.60;99.90
48988;DHT22;34799;51.440;-2.534;2023-09-18T00:52:40;18.60;99.90
48988;DHT22;34799;51.440;-2.534;2023-09-18T00:55:08;18.60;99.90
48988;DHT22;34799;51.440;-2.534;2023-09-18T00:57:36;18.50;99.90
48988;DHT22;34799;51.440;-2.534;2023-09-18T01:00:04;18.50;99.90
48988;DHT22;34799;51.440;-2.534;2023-09-18T01:02:33;18.50;99.90
48988;DHT22;34799;51.440;-2.534;2023-09-18T01:05:00;18.50;99.90
48988;DHT22;34799;51.440;-2.534;2023-09-18T01:07:27;18.50;99.90
48988;DHT22;34799;51.440;-2.534;2023-09-18T01:09:56;18.40;99.90
48988;DHT22;34799;51.440;-2.534;2023-09-18T01:12:26;18.40;99.90
48988;DHT22;34799;51.440;-2.534;2023-09-18T01:17:36;18.40;99.90
48988;DHT22;34799;51.440;-2.534;2023-09-18T01:20:12;18.40;99.90
48988;DHT22;34799;51.440;-2.534;2023-09-18T01:22:40;18.30;99.90
48988;DHT22;34799;51.440;-2.534;2023-09-18T01:25:08;18.30;99.90
48988;DHT22;34799;51.440;-2.534;2023-09-18T01:27:36;18.30;99.90
48988;DHT22;34799;51.440;-2.534;2023-09-18T01:30:04;18.30;99.90
48988;DHT22;34799;51.440;-2.534;2023-09-18T01:32:32;18.30;99.90
48988;DHT22;34799;51.440;-2.534;2023-09-18T01:35:02;18.30;99.90
48988;DHT22;34799;51.440;-2.534;2023-09-18T01:37:33;18.30;99.90
48988;DHT22;34799;51.440;-2.534;2023-09-18T01:40:05;18.30;99.90
48988;DHT22;34799;51.440;-2.534;2023-09-18T01:42:35;18.20;99.90
48988;DHT22;34799;51.440;-2.534;2023-09-18T01:45:03;18.20;99.90
48988;DHT22;34799;51.440;-2.534;2023-09-18T01:47:32;18.20;99.90
48988;DHT22;34799;51.440;-2.534;2023-09-18T01:50:03;18.20;99.90
48988;DHT22;34799;51.440;-2.534;2023-09-18T01:52:32;18.20;99.90
48988;DHT22;34799;51.440;-2.534;2023-09-18T01:55:02;18.10;99.90
48988;DHT22;34799;51.440;-2.534;2023-09-18T01:57:33;18.10;99.90
48988;DHT22;34799;51.440;-2.534;2023-09-18T02:00:00;18.10;99.90
48988;DHT22;34799;51.440;-2.534;2023-09-18T02:02:27;18.10;99.90
48988;DHT22;34799;51.440;-2.534;2023-09-18T02:04:54;18.10;99.90
48988;DHT22;34799;51.440;-2.534;2023-09-18T02:07:24;18.00;99.90
48988;DHT22;34799;51.440;-2.534;2023-09-18T02:09:51;18.00;99.90
48988;DHT22;34799;51.440;-2.534;2023-09-18T02:12:18;18.00;99.90
48988;DHT22;34799;51.440;-2.534;2023-09-18T02:14:47;18.10;99.90
48988;DHT22;34799;51.440;-2.534;2023-09-18T02:17:15;18.00;99.90
48988;DHT22;34799;51.440;-2.534;2023-09-18T02:19:42;18.00;99.90
48988;DHT22;34799;51.440;-2.534;2023-09-18T02:22:10;18.00;99.90
48988;DHT22;34799;51.440;-2.534;2023-09-18T02:24:38;18.00;99.90
48988;DHT22;34799;51.440;-2.534;2023-09-18T02:27:05;18.00;99.90
48988;DHT22;34799;51.440;-2.534;2023-09-18T02:29:33;18.00;99.90
48988;DHT22;34799;51.440;-2.534;2023-09-18T02:32:01;18.00;99.90
48988;DHT22;34799;51.440;-2.534;2023-09-18T02:34:29;18.00;99.90
48988;DHT22;34799;51.440;-2.534;2023-09-18T02:36:58;17.90;99.90
48988;DHT22;34799;51.440;-2.534;2023-09-18T02:39:25;17.90;99.90
48988;DHT22;34799;51.440;-2.534;2023-09-18T02:41:54;17.90;99.90
48988;DHT22;34799;51.440;-2.534;2023-09-18T02:44:22;17.80;99.90
48988;DHT22;34799;51.440;-2.534;2023-09-18T02:46:50;17.80;99.90
48988;DHT22;34799;51.440;-2.534;2023-09-18T02:49:18;17.80;99.90
48988;DHT22;34799;51.440;-2.534;2023-09-18T02:51:46;17.70;99.90
48988;DHT22;34799;51.440;-2.534;2023-09-18T02:54:14;17.70;99.90
48988;DHT22;34799;51.440;-2.534;2023-09-18T02:56:42;17.70;99.90
48988;DHT22;34799;51.440;-2.534;2023-09-18T02:59:10;17.70;99.90
48988;DHT22;34799;51.440;-2.534;2023-09-18T03:01:38;17.60;99.90
48988;DHT22;34799;51.440;-2.534;2023-09-18T03:04:06;17.50;99.90
48988;DHT22;34799;51.440;-2.534;2023-09-18T03:06:34;17.50;99.90
48988;DHT22;34799;51.440;-2.534;2023-09-18T03:09:02;17.50;99.90
48988;DHT22;34799;51.440;-2.534;2023-09-18T03:11:30;17.40;99.90
48988;DHT22;34799;51.440;-2.534;2023-09-18T03:13:58;17.50;99.90
48988;DHT22;34799;51.440;-2.534;2023-09-18T03:16:26;17.40;99.90
48988;DHT22;34799;51.440;-2.534;2023-09-18T03:18:54;17.40;99.90
48988;DHT22;34799;51.440;-2.534;2023-09-18T03:21:22;17.40;99.90
48988;DHT22;34799;51.440;-2.534;2023-09-18T03:23:49;17.40;99.90
48988;DHT22;34799;51.440;-2.534;2023-09-18T03:26:17;17.40;99.90
48988;DHT22;34799;51.440;-2.534;2023-09-18T03:28:45;17.40;99.90
48988;DHT22;34799;51.440;-2.534;2023-09-18T03:31:13;17.40;99.90
48988;DHT22;34799;51.440;-2.534;2023-09-18T03:33:41;17.30;99.90
48988;DHT22;34799;51.440;-2.534;2023-09-18T03:36:09;17.30;99.90
48988;DHT22;34799;51.440;-2.534;2023-09-18T03:38:38;17.30;99.90
48988;DHT22;34799;51.440;-2.534;2023-09-18T03:41:06;17.30;99.90
48988;DHT22;34799;51.440;-2.534;2023-09-18T03:43:33;17.20;99.90
48988;DHT22;34799;51.440;-2.534;2023-09-18T03:46:05;17.20;99.90
48988;DHT22;34799;51.440;-2.534;2023-09-18T03:48:38;17.10;99.90
48988;DHT22;34799;51.440;-2.534;2023-09-18T03:51:06;17.00;99.90
48988;DHT22;34799;51.440;-2.534;2023-09-18T03:53:35;17.00;99.90
48988;DHT22;34799;51.440;-2.534;2023-09-18T03:56:02;17.00;99.90
48988;DHT22;34799;51.440;-2.534;2023-09-18T03:58:30;16.90;99.90
48988;DHT22;34799;51.440;-2.534;2023-09-18T04:00:58;16.90;99.90
48988;DHT22;34799;51.440;-2.534;2023-09-18T04:03:26;16.10;99.90
48988;DHT22;34799;51.440;-2.534;2023-09-18T04:05:54;16.90;99.90
48988;DHT22;34799;51.440;-2.534;2023-09-18T04:08:22;16.90;99.90
48988;DHT22;34799;51.440;-2.534;2023-09-18T04:10:50;16.90;99.90
48988;DHT22;34799;51.440;-2.534;2023-09-18T04:13:18;16.90;99.90
48988;DHT22;34799;51.440;-2.534;2023-09-18T04:15:46;16.90;99.90
48988;DHT22;34799;51.440;-2.534;2023-09-18T04:18:14;16.90;99.90
48988;DHT22;34799;51.440;-2.534;2023-09-18T04:20:42;16.80;99.90
48988;DHT22;34799;51.440;-2.534;2023-09-18T04:23:20;16.80;99.90
48988;DHT22;34799;51.440;-2.534;2023-09-18T04:25:49;16.80;99.90
48988;DHT22;34799;51.440;-2.534;2023-09-18T04:28:17;16.80;99.90
48988;DHT22;34799;51.440;-2.534;2023-09-18T04:30:46;16.80;99.90
48988;DHT22;34799;51.440;-2.534;2023-09-18T04:33:14;16.70;99.90
48988;DHT22;34799;51.440;-2.534;2023-09-18T04:35:42;16.60;99.90
48988;DHT22;34799;51.440;-2.534;2023-09-18T04:38:10;16.60;99.90
48988;DHT22;34799;51.440;-2.534;2023-09-18T04:40:38;16.50;99.90
48988;DHT22;34799;51.440;-2.534;2023-09-18T04:43:07;16.40;99.90
48988;DHT22;34799;51.440;-2.534;2023-09-18T04:45:34;16.40;99.90
48988;DHT22;34799;51.440;-2.534;2023-09-18T04:48:01;16.40;99.90
48988;DHT22;34799;51.440;-2.534;2023-09-18T04:50:30;16.40;99.90
48988;DHT22;34799;51.440;-2.534;2023-09-18T04:52:57;16.40;99.90
48988;DHT22;34799;51.440;-2.534;2023-09-18T04:55:26;16.50;99.90
48988;DHT22;34799;51.440;-2.534;2023-09-18T04:57:53;16.40;99.90
48988;DHT22;34799;51.440;-2.534;2023-09-18T05:00:20;16.40;99.90
48988;DHT22;34799;51.440;-2.534;2023-09-18T05:02:51;16.40;99.90
48988;DHT22;34799;51.440;-2.534;2023-09-18T05:05:19;16.40;99.90
48988;DHT22;34799;51.440;-2.534;2023-09-18T05:07:46;16.40;99.90
48988;DHT22;34799;51.440;-2.534;2023-09-18T05:10:13;17.30;99.90
48988;DHT22;34799;51.440;-2.534;2023-09-18T05:12:40;16.40;99.90
48988;DHT22;34799;51.440;-2.534;2023-09-18T05:15:08;16.30;99.90
48988;DHT22;34799;51.440;-2.534;2023-09-18T05:17:47;16.20;99.90
48988;DHT22;34799;51.440;-2.534;2023-09-18T05:20:16;16.20;99.90
48988;DHT22;34799;51.440;-2.534;2023-09-18T05:22:44;16.20;99.90
48988;DHT22;34799;51.440;-2.534;2023-09-18T05:25:12;16.20;99.90
48988;DHT22;34799;51.440;-2.534;2023-09-18T05:27:42;16.20;99.90
48988;DHT22;34799;51.440;-2.534;2023-09-18T05:30:18;16.10;99.90
48988;DHT22;34799;51.440;-2.534;2023-09-18T05:32:49;16.10;99.90
48988;DHT22;34799;51.440;-2.534;2023-09-18T05:35:17;16.10;99.90
48988;DHT22;34799;51.440;-2.534;2023-09-18T05:37:45;16.10;99.90
48988;DHT22;34799;51.440;-2.534;2023-09-18T05:40:13;16.00;99.90
48988;DHT22;34799;51.440;-2.534;2023-09-18T05:42:42;16.00;99.90
48988;DHT22;34799;51.440;-2.534;2023-09-18T05:45:11;15.90;99.90
48988;DHT22;34799;51.440;-2.534;2023-09-18T05:47:38;15.80;99.90
48988;DHT22;34799;51.440;-2.534;2023-09-18T05:50:10;15.80;99.90
48988;DHT22;34799;51.440;-2.534;2023-09-18T05:52:47;15.80;99.90
48988;DHT22;34799;51.440;-2.534;2023-09-18T05:55:15;15.70;99.90
48988;DHT22;34799;51.440;-2.534;2023-09-18T05:57:42;15.70;99.90
48988;DHT22;34799;51.440;-2.534;2023-09-18T06:00:10;15.70;99.90
48988;DHT22;34799;51.440;-2.534;2023-09-18T06:02:41;15.70;99.90
48988;DHT22;34799;51.440;-2.534;2023-09-18T06:05:09;15.70;99.90
48988;DHT22;34799;51.440;-2.534;2023-09-18T06:07:39;15.60;99.90
48988;DHT22;34799;51.440;-2.534;2023-09-18T06:10:07;15.60;99.90
48988;DHT22;34799;51.440;-2.534;2023-09-18T06:12:37;15.60;99.90
48988;DHT22;34799;51.440;-2.534;2023-09-18T06:15:08;15.60;99.90
48988;DHT22;34799;51.440;-2.534;2023-09-18T06:17:39;15.50;99.90
48988;DHT22;34799;51.440;-2.534;2023-09-18T06:20:09;15.60;99.90
48988;DHT22;34799;51.440;-2.534;2023-09-18T06:22:38;15.50;99.90
48988;DHT22;34799;51.440;-2.534;2023-09-18T06:25:06;15.50;99.90
48988;DHT22;34799;51.440;-2.534;2023-09-18T06:27:34;15.50;99.90
48988;DHT22;34799;51.440;-2.534;2023-09-18T06:30:04;15.50;99.90
48988;DHT22;34799;51.440;-2.534;2023-09-18T06:32:32;15.50;99.90
48988;DHT22;34799;51.440;-2.534;2023-09-18T06:35:00;15.50;99.90
48988;DHT22;34799;51.440;-2.534;2023-09-18T06:37:28;15.50;99.90
48988;DHT22;34799;51.440;-2.534;2023-09-18T06:39:55;15.50;99.90
48988;DHT22;34799;51.440;-2.534;2023-09-18T06:42:23;15.50;99.90
48988;DHT22;34799;51.440;-2.534;2023-09-18T06:44:57;15.60;99.90
48988;DHT22;34799;51.440;-2.534;2023-09-18T06:47:25;15.60;99.90
48988;DHT22;34799;51.440;-2.534;2023-09-18T06:49:53;15.70;99.90
48988;DHT22;34799;51.440;-2.534;2023-09-18T06:52:21;15.70;99.90
48988;DHT22;34799;51.440;-2.534;2023-09-18T06:54:48;15.70;99.90
48988;DHT22;34799;51.440;-2.534;2023-09-18T06:57:16;15.70;99.90
48988;DHT22;34799;51.440;-2.534;2023-09-18T06:59:45;15.80;99.90
48988;DHT22;34799;51.440;-2.534;2023-09-18T07:02:12;15.80;99.90
48988;DHT22;34799;51.440;-2.534;2023-09-18T07:04:42;15.80;99.90
48988;DHT22;34799;51.440;-2.534;2023-09-18T07:07:13;15.90;99.90
48988;DHT22;34799;51.440;-2.534;2023-09-18T07:09:41;15.80;99.90
48988;DHT22;34799;51.440;-2.534;2023-09-18T07:12:17;15.90;99.90
48988;DHT22;34799;51.440;-2.534;2023-09-18T07:14:48;16.00;99.90
48988;DHT22;34799;51.440;-2.534;2023-09-18T07:17:16;16.00;99.90
48988;DHT22;34799;51.440;-2.534;2023-09-18T07:19:44;16.10;99.90
48988;DHT22;34799;51.440;-2.534;2023-09-18T07:22:12;16.20;99.90
48988;DHT22;34799;51.440;-2.534;2023-09-18T07:24:40;16.20;99.90
48988;DHT22;34799;51.440;-2.534;2023-09-18T07:27:08;16.30;99.90
48988;DHT22;34799;51.440;-2.534;2023-09-18T07:29:37;16.30;99.90
48988;DHT22;34799;51.440;-2.534;2023-09-18T07:32:06;16.20;99.90
48988;DHT22;34799;51.440;-2.534;2023-09-18T07:34:34;16.20;99.90
48988;DHT22;34799;51.440;-2.534;2023-09-18T07:37:02;16.30;99.90
48988;DHT22;34799;51.440;-2.534;2023-09-18T07:39:30;16.30;99.90
48988;DHT22;34799;51.440;-2.534;2023-09-18T07:41:57;16.30;99.90
48988;DHT22;34799;51.440;-2.534;2023-09-18T07:44:25;16.30;99.90
48988;DHT22;34799;51.440;-2.534;2023-09-18T07:46:53;16.40;99.90
48988;DHT22;34799;51.440;-2.534;2023-09-18T07:49:21;16.40;99.90
48988;DHT22;34799;51.440;-2.534;2023-09-18T07:51:49;16.50;99.90
48988;DHT22;34799;51.440;-2.534;2023-09-18T07:54:17;16.60;99.90
48988;DHT22;34799;51.440;-2.534;2023-09-18T07:56:45;16.60;99.90
48988;DHT22;34799;51.440;-2.534;2023-09-18T07:59:13;16.60;99.90
48988;DHT22;34799;51.440;-2.534;2023-09-18T08:01:41;16.60;99.90
48988;DHT22;34799;51.440;-2.534;2023-09-18T08:04:09;16.70;99.90
48988;DHT22;34799;51.440;-2.534;2023-09-18T08:06:37;16.70;99.90
48988;DHT22;34799;51.440;-2.534;2023-09-18T08:09:05;16.70;99.90
48988;DHT22;34799;51.440;-2.534;2023-09-18T08:11:33;16.70;99.90
48988;DHT22;34799;51.440;-2.534;2023-09-18T08:14:00;16.60;99.90
48988;DHT22;34799;51.440;-2.534;2023-09-18T08:16:28;16.60;99.90
48988;DHT22;34799;51.440;-2.534;2023-09-18T08:18:56;16.60;99.90
48988;DHT22;34799;51.440;-2.534;2023-09-18T08:21:24;16.60;99.90
48988;DHT22;34799;51.440;-2.534;2023-09-18T08:23:52;16.60;99.90
48988;DHT22;34799;51.440;-2.534;2023-09-18T08:26:20;16.70;99.90
48988;DHT22;34799;51.440;-2.534;2023-09-18T08:28:48;16.80;99.90
48988;DHT22;34799;51.440;-2.534;2023-09-18T08:31:16;16.90;99.90
48988;DHT22;34799;51.440;-2.534;2023-09-18T08:33:44;16.90;99.90
48988;DHT22;34799;51.440;-2.534;2023-09-18T08:36:11;16.90;99.90
48988;DHT22;34799;51.440;-2.534;2023-09-18T08:38:39;17.00;99.90
48988;DHT22;34799;51.440;-2.534;2023-09-18T08:41:07;16.90;99.90
48988;DHT22;34799;51.440;-2.534;2023-09-18T08:43:37;16.90;99.90
48988;DHT22;34799;51.440;-2.534;2023-09-18T08:46:06;17.00;99.90
48988;DHT22;34799;51.440;-2.534;2023-09-18T08:48:34;17.00;99.90
48988;DHT22;34799;51.440;-2.534;2023-09-18T08:51:06;17.00;99.90
48988;DHT22;34799;51.440;-2.534;2023-09-18T08:53:36;16.90;99.90
48988;DHT22;34799;51.440;-2.534;2023-09-18T08:56:04;17.00;99.90
48988;DHT22;34799;51.440;-2.534;2023-09-18T08:58:35;17.00;99.90
48988;DHT22;34799;51.440;-2.534;2023-09-18T09:01:04;17.00;99.90
48988;DHT22;34799;51.440;-2.534;2023-09-18T09:03:32;17.00;99.90
48988;DHT22;34799;51.440;-2.534;2023-09-18T09:06:01;17.10;99.90
48988;DHT22;34799;51.440;-2.534;2023-09-18T09:08:29;17.10;99.90
48988;DHT22;34799;51.440;-2.534;2023-09-18T09:10:56;17.10;99.90
48988;DHT22;34799;51.440;-2.534;2023-09-18T09:13:27;17.10;99.90
48988;DHT22;34799;51.440;-2.534;2023-09-18T09:16:00;17.10;99.90
48988;DHT22;34799;51.440;-2.534;2023-09-18T09:18:29;17.20;99.90
48988;DHT22;34799;51.440;-2.534;2023-09-18T09:23:27;17.50;99.90
48988;DHT22;34799;51.440;-2.534;2023-09-18T09:26:16;17.60;99.90
48988;DHT22;34799;51.440;-2.534;2023-09-18T09:28:45;17.70;99.90
48988;DHT22;34799;51.440;-2.534;2023-09-18T09:31:25;17.80;99.90
48988;DHT22;34799;51.440;-2.534;2023-09-18T09:33:54;17.80;99.90
48988;DHT22;34799;51.440;-2.534;2023-09-18T09:36:23;17.80;99.90
48988;DHT22;34799;51.440;-2.534;2023-09-18T09:38:55;17.70;99.90
48988;DHT22;34799;51.440;-2.534;2023-09-18T09:41:27;17.70;99.90
48988;DHT22;34799;51.440;-2.534;2023-09-18T09:43:58;17.60;99.90
48988;DHT22;34799;51.440;-2.534;2023-09-18T09:46:26;17.60;99.90
48988;DHT22;34799;51.440;-2.534;2023-09-18T09:48:59;17.70;99.90
48988;DHT22;34799;51.440;-2.534;2023-09-18T09:51:28;17.70;99.90
48988;DHT22;34799;51.440;-2.534;2023-09-18T09:53:56;17.70;99.90
48988;DHT22;34799;51.440;-2.534;2023-09-18T09:56:56;17.70;99.90
48988;DHT22;34799;51.440;-2.534;2023-09-18T09:59:29;17.60;99.90
48988;DHT22;34799;51.440;-2.534;2023-09-18T10:02:02;17.50;99.90
48988;DHT22;34799;51.440;-2.534;2023-09-18T10:04:32;17.40;99.90
48988;DHT22;34799;51.440;-2.534;2023-09-18T10:07:08;17.30;99.90
48988;DHT22;34799;51.440;-2.534;2023-09-18T10:09:39;17.30;99.90
48988;DHT22;34799;51.440;-2.534;2023-09-18T10:12:12;17.30;99.90
48988;DHT22;34799;51.440;-2.534;2023-09-18T10:14:43;17.40;99.90
48988;DHT22;34799;51.440;-2.534;2023-09-18T10:17:21;17.40;99.90
48988;DHT22;34799;51.440;-2.534;2023-09-18T10:22:33;17.50;99.90
48988;DHT22;34799;51.440;-2.534;2023-09-18T10:25:17;17.60;99.90
48988;DHT22;34799;51.440;-2.534;2023-09-18T10:27:50;17.60;99.90
48988;DHT22;34799;51.440;-2.534;2023-09-18T10:30:25;17.70;99.90
48988;DHT22;34799;51.440;-2.534;2023-09-18T10:32:53;17.60;99.90
48988;DHT22;34799;51.440;-2.534;2023-09-18T10:35:22;17.60;99.90
48988;DHT22;34799;51.440;-2.534;2023-09-18T10:37:49;17.50;99.90
48988;DHT22;34799;51.440;-2.534;2023-09-18T10:40:21;17.40;99.90
48988;DHT22;34799;51.440;-2.534;2023-09-18T10:42:52;17.30;99.90
48988;DHT22;34799;51.440;-2.534;2023-09-18T10:45:21;17.10;99.90
48988;DHT22;34799;51.440;-2.534;2023-09-18T10:47:49;17.10;99.90
48988;DHT22;34799;51.440;-2.534;2023-09-18T10:50:23;17.00;99.90
48988;DHT22;34799;51.440;-2.534;2023-09-18T10:52:57;17.00;99.90
48988;DHT22;34799;51.440;-2.534;2023-09-18T10:55:24;17.00;99.90
48988;DHT22;34799;51.440;-2.534;2023-09-18T10:57:54;17.00;99.90
48988;DHT22;34799;51.440;-2.534;2023-09-18T11:00:24;17.00;99.90
48988;DHT22;34799;51.440;-2.534;2023-09-18T11:02:54;17.00;99.90
48988;DHT22;34799;51.440;-2.534;2023-09-18T11:05:35;17.00;99.90
48988;DHT22;34799;51.440;-2.534;2023-09-18T11:11:29;17.00;99.90
48988;DHT22;34799;51.440;-2.534;2023-09-18T11:13:53;17.10;99.90
48988;DHT22;34799;51.440;-2.534;2023-09-18T11:21:29;17.40;99.90
48988;DHT22;34799;51.440;-2.534;2023-09-18T11:26:36;17.50;99.90
48988;DHT22;34799;51.440;-2.534;2023-09-18T11:29:06;17.40;99.90
48988;DHT22;34799;51.440;-2.534;2023-09-18T11:31:52;17.30;99.90
48988;DHT22;34799;51.440;-2.534;2023-09-18T11:34:21;17.30;99.90
48988;DHT22;34799;51.440;-2.534;2023-09-18T11:36:50;17.40;99.90
48988;DHT22;34799;51.440;-2.534;2023-09-18T11:39:37;17.50;99.90
48988;DHT22;34799;51.440;-2.534;2023-09-18T11:42:41;17.50;99.90
48988;DHT22;34799;51.440;-2.534;2023-09-18T11:45:00;17.60;99.90
48988;DHT22;34799;51.440;-2.534;2023-09-18T11:47:28;17.70;99.90
48988;DHT22;34799;51.440;-2.534;2023-09-18T11:49:59;17.70;99.90
48988;DHT22;34799;51.440;-2.534;2023-09-18T11:52:28;17.80;99.90
48988;DHT22;34799;51.440;-2.534;2023-09-18T11:54:59;17.80;99.90
48988;DHT22;34799;51.440;-2.534;2023-09-18T11:57:27;17.80;99.90
48988;DHT22;34799;51.440;-2.534;2023-09-18T11:59:55;17.70;99.90
48988;DHT22;34799;51.440;-2.534;2023-09-18T12:02:28;17.70;99.90
48988;DHT22;34799;51.440;-2.534;2023-09-18T12:04:55;17.70;99.90
48988;DHT22;34799;51.440;-2.534;2023-09-18T12:07:23;17.70;99.90
48988;DHT22;34799;51.440;-2.534;2023-09-18T12:09:51;17.80;99.90
48988;DHT22;34799;51.440;-2.534;2023-09-18T12:12:22;17.80;99.90
48988;DHT22;34799;51.440;-2.534;2023-09-18T12:14:52;17.90;99.90
48988;DHT22;34799;51.440;-2.534;2023-09-18T12:17:19;17.90;99.90
48988;DHT22;34799;51.440;-2.534;2023-09-18T12:19:52;17.90;99.90
48988;DHT22;34799;51.440;-2.534;2023-09-18T12:22:38;17.80;99.90
48988;DHT22;34799;51.440;-2.534;2023-09-18T12:25:23;17.70;99.90
48988;DHT22;34799;51.440;-2.534;2023-09-18T12:27:52;17.70;99.90
48988;DHT22;34799;51.440;-2.534;2023-09-18T12:30:21;17.70;99.90
48988;DHT22;34799;51.440;-2.534;2023-09-18T12:32:50;17.60;99.90
48988;DHT22;34799;51.440;-2.534;2023-09-18T12:35:19;17.60;99.90
48988;DHT22;34799;51.440;-2.534;2023-09-18T12:37:47;17.70;99.90
48988;DHT22;34799;51.440;-2.534;2023-09-18T12:40:22;17.70;99.90
48988;DHT22;34799;51.440;-2.534;2023-09-18T12:42:50;17.70;99.90
48988;DHT22;34799;51.440;-2.534;2023-09-18T12:45:17;17.70;99.90
48988;DHT22;34799;51.440;-2.534;2023-09-18T12:47:45;17.70;99.90
48988;DHT22;34799;51.440;-2.534;2023-09-18T12:50:13;17.80;99.90
48988;DHT22;34799;51.440;-2.534;2023-09-18T12:52:41;17.90;99.90
48988;DHT22;34799;51.440;-2.534;2023-09-18T12:55:09;17.80;99.90
48988;DHT22;34799;51.440;-2.534;2023-09-18T12:57:46;17.80;99.90
48988;DHT22;34799;51.440;-2.534;2023-09-18T13:00:14;17.80;99.90
48988;DHT22;34799;51.440;-2.534;2023-09-18T13:02:47;17.90;99.90
48988;DHT22;34799;51.440;-2.534;2023-09-18T13:05:19;17.90;99.90
48988;DHT22;34799;51.440;-2.534;2023-09-18T13:07:47;18.00;99.90
48988;DHT22;34799;51.440;-2.534;2023-09-18T13:10:18;18.00;99.90
48988;DHT22;34799;51.440;-2.534;2023-09-18T13:12:47;18.10;99.90
48988;DHT22;34799;51.440;-2.534;2023-09-18T13:18:08;17.90;99.90
48988;DHT22;34799;51.440;-2.534;2023-09-18T13:20:36;18.00;99.90
48988;DHT22;34799;51.440;-2.534;2023-09-18T13:23:04;18.10;99.90
48988;DHT22;34799;51.440;-2.534;2023-09-18T13:25:33;18.20;99.90
48988;DHT22;34799;51.440;-2.534;2023-09-18T13:28:04;18.20;99.90
48988;DHT22;34799;51.440;-2.534;2023-09-18T13:30:32;18.00;99.90
48988;DHT22;34799;51.440;-2.534;2023-09-18T13:33:03;18.00;99.90
48988;DHT22;34799;51.440;-2.534;2023-09-18T13:35:31;18.00;99.90
48988;DHT22;34799;51.440;-2.534;2023-09-18T13:37:58;17.90;99.90
48988;DHT22;34799;51.440;-2.534;2023-09-18T13:40:26;17.80;99.90
48988;DHT22;34799;51.440;-2.534;2023-09-18T13:42:53;17.70;99.90
48988;DHT22;34799;51.440;-2.534;2023-09-18T13:45:21;17.60;99.90
48988;DHT22;34799;51.440;-2.534;2023-09-18T13:47:48;17.70;99.90
48988;DHT22;34799;51.440;-2.534;2023-09-18T13:50:16;17.70;99.90
48988;DHT22;34799;51.440;-2.534;2023-09-18T13:52:43;17.60;99.90
48988;DHT22;34799;51.440;-2.534;2023-09-18T13:55:11;17.60;99.90
48988;DHT22;34799;51.440;-2.534;2023-09-18T13:57:38;16.00;99.90
48988;DHT22;34799;51.440;-2.534;2023-09-18T14:00:07;17.20;99.90
48988;DHT22;34799;51.440;-2.534;2023-09-18T14:02:39;17.20;99.90
48988;DHT22;34799;51.440;-2.534;2023-09-18T14:05:07;17.10;99.90
48988;DHT22;34799;51.440;-2.534;2023-09-18T14:07:37;17.10;99.90
48988;DHT22;34799;51.440;-2.534;2023-09-18T14:10:08;17.10;99.90
48988;DHT22;34799;51.440;-2.534;2023-09-18T14:12:37;17.00;99.90
48988;DHT22;34799;51.440;-2.534;2023-09-18T14:15:08;17.00;99.90
48988;DHT22;34799;51.440;-2.534;2023-09-18T14:17:36;16.90;99.90
48988;DHT22;34799;51.440;-2.534;2023-09-18T14:20:04;17.00;99.90
48988;DHT22;34799;51.440;-2.534;2023-09-18T14:22:34;17.10;99.90
48988;DHT22;34799;51.440;-2.534;2023-09-18T14:25:04;17.40;99.90
48988;DHT22;34799;51.440;-2.534;2023-09-18T14:27:33;17.60;99.90
48988;DHT22;34799;51.440;-2.534;2023-09-18T14:30:03;17.90;99.90
48988;DHT22;34799;51.440;-2.534;2023-09-18T14:32:34;18.00;99.90
48988;DHT22;34799;51.440;-2.534;2023-09-18T14:35:05;18.00;99.90
48988;DHT22;34799;51.440;-2.534;2023-09-18T14:37:35;18.10;99.90
48988;DHT22;34799;51.440;-2.534;2023-09-18T14:40:03;18.10;99.90
48988;DHT22;34799;51.440;-2.534;2023-09-18T14:42:30;18.20;99.90
48988;DHT22;34799;51.440;-2.534;2023-09-18T14:44:57;18.10;99.90
48988;DHT22;34799;51.440;-2.534;2023-09-18T14:47:25;18.10;99.90
48988;DHT22;34799;51.440;-2.534;2023-09-18T14:49:52;18.10;99.90
48988;DHT22;34799;51.440;-2.534;2023-09-18T14:52:20;18.20;99.90
48988;DHT22;34799;51.440;-2.534;2023-09-18T14:54:50;18.30;99.90
48988;DHT22;34799;51.440;-2.534;2023-09-18T14:57:17;18.30;99.90
48988;DHT22;34799;51.440;-2.534;2023-09-18T14:59:44;18.50;99.90
48988;DHT22;34799;51.440;-2.534;2023-09-18T15:02:14;18.50;99.90
48988;DHT22;34799;51.440;-2.534;2023-09-18T15:04:43;18.30;99.90
48988;DHT22;34799;51.440;-2.534;2023-09-18T15:07:10;18.30;99.90
48988;DHT22;34799;51.440;-2.534;2023-09-18T15:09:38;18.20;99.90
48988;DHT22;34799;51.440;-2.534;2023-09-18T15:12:05;18.20;99.90
48988;DHT22;34799;51.440;-2.534;2023-09-18T15:14:36;18.30;99.90
48988;DHT22;34799;51.440;-2.534;2023-09-18T15:17:03;18.40;99.90
48988;DHT22;34799;51.440;-2.534;2023-09-18T15:19:31;18.30;99.90
48988;DHT22;34799;51.440;-2.534;2023-09-18T15:21:58;18.30;99.90
48988;DHT22;34799;51.440;-2.534;2023-09-18T15:24:26;18.20;99.90
48988;DHT22;34799;51.440;-2.534;2023-09-18T15:26:53;18.10;99.90
48988;DHT22;34799;51.440;-2.534;2023-09-18T15:29:20;18.10;99.90
48988;DHT22;34799;51.440;-2.534;2023-09-18T15:31:48;18.10;99.90
48988;DHT22;34799;51.440;-2.534;2023-09-18T15:34:15;18.10;99.90
48988;DHT22;34799;51.440;-2.534;2023-09-18T15:37:03;18.20;99.90
48988;DHT22;34799;51.440;-2.534;2023-09-18T15:39:31;18.30;99.90
48988;DHT22;34799;51.440;-2.534;2023-09-18T15:42:01;18.40;99.90
48988;DHT22;34799;51.440;-2.534;2023-09-18T15:44:28;18.30;99.90
48988;DHT22;34799;51.440;-2.534;2023-09-18T15:46:55;18.30;99.90
48988;DHT22;34799;51.440;-2.534;2023-09-18T15:49:22;18.20;99.90